Time;durP1;ratioP1;P1;durP2;ratioP2;P2;SDS_P1;SDS_P2;PMS_P1;PMS_P2;Temp;Humidity;BMP_temperature;BMP_pressure;BME280_temperature;BME280_humidity;BME280_pressure;Samples;Min_cycle;Max_cycle;Signal;HPM_P1;HPM_P2
2023/01/07 00:02:27;;;;;;;14.27;5.65;;;;;;;;;;10427387;28;20410;-72
2023/01/07 00:07:27;;;;;;;12.70;7.25;;;;;;;;;;10426557;28;20036;-78
2023/01/07 00:12:27;;;;;;;16.58;6.18;;;;;;;;;;10426256;28;20045;-77
2023/01/07 00:17:28;;;;;;;13.25;6.70;;;;;;;;;;10426914;28;20029;-76
2023/01/07 00:22:28;;;;;;;14.03;6.40;;;;;;;;;;10426673;28;20052;-76
2023/01/07 00:27:28;;;;;;;14.02;6.65;;;;;;;;;;10444379;28;20031;-76
2023/01/07 00:37:51;;;;;;;17.75;7.60;;;;;;;;;;10445277;28;20017;-76
2023/01/07 00:42:56;;;;;;;11.80;6.25;;;;;;;;;;10445268;28;20024;-78
2023/01/07 00:47:57;;;;;;;17.60;6.45;;;;;;;;;;10426973;28;20020;-74
2023/01/07 00:52:57;;;;;;;13.90;6.88;;;;;;;;;;10426486;28;20021;-73
2023/01/07 00:57:58;;;;;;;12.90;6.97;;;;;;;;;;10428509;28;20093;-76
2023/01/07 01:02:58;;;;;;;14.07;6.03;;;;;;;;;;10426095;28;20487;-77
2023/01/07 01:07:58;;;;;;;23.50;7.10;;;;;;;;;;10425109;28;20031;-74
2023/01/07 01:12:59;;;;;;;20.80;6.90;;;;;;;;;;10424745;28;20303;-74
2023/01/07 01:17:59;;;;;;;15.10;7.47;;;;;;;;;;10403024;28;20099;-77
2023/01/07 01:22:59;;;;;;;14.85;6.72;;;;;;;;;;10440362;28;20402;-75
2023/01/07 01:27:59;;;;;;;14.50;6.55;;;;;;;;;;10441059;28;20056;-73
2023/01/07 01:33:00;;;;;;;14.55;8.10;;;;;;;;;;10452791;28;20017;-71
2023/01/07 01:38:00;;;;;;;18.02;8.73;;;;;;;;;;10425387;28;20017;-75
2023/01/07 01:43:00;;;;;;;19.17;7.85;;;;;;;;;;10424826;28;20548;-75
2023/01/07 01:48:06;;;;;;;13.85;8.18;;;;;;;;;;10424923;28;20090;-74
2023/01/07 01:53:09;;;;;;;19.45;7.70;;;;;;;;;;10441543;28;20033;-75
2023/01/07 01:58:13;;;;;;;23.48;7.82;;;;;;;;;;10424626;28;20039;-74
2023/01/07 02:03:16;;;;;;;15.55;6.70;;;;;;;;;;10423507;28;20394;-78
2023/01/07 02:08:20;;;;;;;17.85;5.82;;;;;;;;;;10406739;28;20024;-73
2023/01/07 02:13:47;;;;;;;11.18;6.30;;;;;;;;;;10441304;28;20049;-73
2023/01/07 02:19:06;;;;;;;12.93;6.80;;;;;;;;;;10393834;28;20039;-76
2023/01/07 02:24:31;;;;;;;11.93;5.63;;;;;;;;;;10424046;28;20017;-75
2023/01/07 02:29:31;;;;;;;11.48;5.18;;;;;;;;;;10441009;28;20431;-71
2023/01/07 02:34:42;;;;;;;10.73;5.15;;;;;;;;;;10446570;28;20494;-72
2023/01/07 02:40:02;;;;;;;12.73;5.18;;;;;;;;;;10449300;28;20111;-72
2023/01/07 02:45:21;;;;;;;10.05;4.10;;;;;;;;;;10430104;28;20082;-76
2023/01/07 02:50:22;;;;;;;9.55;4.47;;;;;;;;;;10431222;28;20021;-74
2023/01/07 02:55:28;;;;;;;11.13;4.30;;;;;;;;;;10430939;28;20020;-71
2023/01/07 03:00:28;;;;;;;6.75;3.70;;;;;;;;;;10441935;28;20271;-76
2023/01/07 03:05:32;;;;;;;7.85;4.10;;;;;;;;;;10441164;28;20039;-74
2023/01/07 03:10:46;;;;;;;7.60;4.10;;;;;;;;;;10437116;28;20064;-75
2023/01/07 03:15:59;;;;;;;6.00;4.00;;;;;;;;;;10388811;28;20057;-75
2023/01/07 03:21:05;;;;;;;11.57;3.72;;;;;;;;;;10375481;28;20108;-77
2023/01/07 03:26:09;;;;;;;9.45;3.95;;;;;;;;;;10381672;28;20057;-77
2023/01/07 03:31:12;;;;;;;7.55;3.50;;;;;;;;;;10377353;28;20053;-76
2023/01/07 03:36:13;;;;;;;7.40;3.53;;;;;;;;;;10366206;28;20026;-77
2023/01/07 03:42:38;;;;;;;5.47;3.53;;;;;;;;;;10363936;28;20028;-76
2023/01/07 03:46:35;;;;;;;8.35;4.43;;;;;;;;;;10364588;28;20491;-74
2023/01/07 03:51:35;;;;;;;7.05;4.40;;;;;;;;;;10339599;28;20090;-77
2023/01/07 03:56:35;;;;;;;7.90;4.70;;;;;;;;;;10333001;28;20407;-76
2023/01/07 04:01:35;;;;;;;7.18;4.45;;;;;;;;;;10364386;28;20042;-75
2023/01/07 04:06:36;;;;;;;9.50;4.82;;;;;;;;;;10363103;28;20488;-77
2023/01/07 04:11:36;;;;;;;10.35;4.93;;;;;;;;;;10363217;28;20388;-75
2023/01/07 04:16:38;;;;;;;9.20;4.70;;;;;;;;;;10400780;28;20600;-79
2023/01/07 04:21:38;;;;;;;13.43;6.47;;;;;;;;;;10404528;28;20041;-76
2023/01/07 04:26:40;;;;;;;10.95;5.25;;;;;;;;;;10404634;28;20491;-76
2023/01/07 04:31:40;;;;;;;9.13;5.70;;;;;;;;;;10404420;28;20021;-76
2023/01/07 04:36:40;;;;;;;8.27;5.43;;;;;;;;;;10403699;28;20511;-78
2023/01/07 04:41:41;;;;;;;10.27;5.00;;;;;;;;;;10403306;28;20505;-77
2023/01/07 04:46:42;;;;;;;9.90;4.90;;;;;;;;;;10403386;28;20021;-78
2023/01/07 04:51:42;;;;;;;13.05;5.65;;;;;;;;;;10401724;28;20150;-76
2023/01/07 04:56:42;;;;;;;12.63;5.88;;;;;;;;;;10399934;28;20029;-76
2023/01/07 05:01:43;;;;;;;14.75;6.22;;;;;;;;;;10400506;28;20025;-75
2023/01/07 05:06:43;;;;;;;16.38;5.90;;;;;;;;;;10402030;28;20033;-76
2023/01/07 05:11:45;;;;;;;11.90;5.63;;;;;;;;;;10402275;28;20065;-74
2023/01/07 05:16:45;;;;;;;10.55;5.45;;;;;;;;;;10441995;28;20542;-73
2023/01/07 05:21:46;;;;;;;12.60;5.97;;;;;;;;;;10453445;28;20024;-75
2023/01/07 05:26:46;;;;;;;25.77;7.43;;;;;;;;;;10443937;28;20092;-76
2023/01/07 05:31:46;;;;;;;27.17;6.93;;;;;;;;;;10434492;28;20028;-75
2023/01/07 05:36:46;;;;;;;10.40;5.97;;;;;;;;;;10442682;28;20033;-76
2023/01/07 05:41:48;;;;;;;16.80;7.05;;;;;;;;;;10424348;28;20090;-78
2023/01/07 05:46:48;;;;;;;16.17;6.65;;;;;;;;;;10441016;28;20156;-76
2023/01/07 05:51:48;;;;;;;12.82;6.63;;;;;;;;;;10421364;28;20521;-77
2023/01/07 05:56:49;;;;;;;9.05;5.93;;;;;;;;;;10425270;28;20490;-78
2023/01/07 06:01:49;;;;;;;19.77;8.60;;;;;;;;;;10442497;28;20031;-79
2023/01/07 06:06:49;;;;;;;20.60;9.23;;;;;;;;;;10431023;28;20025;-81
2023/01/07 06:11:49;;;;;;;17.52;8.30;;;;;;;;;;10448001;28;20029;-78
2023/01/07 06:16:50;;;;;;;15.35;8.18;;;;;;;;;;10439738;28;20114;-75
2023/01/07 06:21:50;;;;;;;18.52;7.32;;;;;;;;;;10426182;28;20037;-80
2023/01/07 06:26:50;;;;;;;20.52;8.65;;;;;;;;;;10446922;28;20045;-76
2023/01/07 06:31:51;;;;;;;16.40;9.50;;;;;;;;;;10429476;28;20035;-74
2023/01/07 06:36:51;;;;;;;20.07;8.93;;;;;;;;;;10429915;28;20036;-76
2023/01/07 06:41:51;;;;;;;23.48;10.80;;;;;;;;;;10429513;28;20356;-75
2023/01/07 06:46:51;;;;;;;16.60;9.43;;;;;;;;;;10424718;28;20025;-80
2023/01/07 06:51:52;;;;;;;20.75;10.25;;;;;;;;;;10448610;28;20503;-79
2023/01/07 06:56:52;;;;;;;27.00;10.93;;;;;;;;;;10417700;28;20024;-78
2023/01/07 07:01:53;;;;;;;21.40;12.02;;;;;;;;;;10425459;28;20514;-74
2023/01/07 07:06:53;;;;;;;21.67;11.27;;;;;;;;;;10428473;28;20029;-76
2023/01/07 07:11:54;;;;;;;17.83;9.67;;;;;;;;;;10427851;28;20036;-78
2023/01/07 07:16:56;;;;;;;21.23;10.07;;;;;;;;;;10445600;28;20053;-76
2023/01/07 07:21:56;;;;;;;13.80;9.18;;;;;;;;;;10445246;28;20037;-78
2023/01/07 07:26:56;;;;;;;18.33;9.45;;;;;;;;;;10445219;28;20421;-75
2023/01/07 07:31:58;;;;;;;20.10;9.95;;;;;;;;;;10425363;28;20021;-78
2023/01/07 07:36:58;;;;;;;21.95;10.25;;;;;;;;;;10453172;28;20016;-77
2023/01/07 07:42:01;;;;;;;15.30;9.73;;;;;;;;;;10447093;28;20623;-74
2023/01/07 07:47:01;;;;;;;16.08;7.47;;;;;;;;;;10425103;28;20021;-77
2023/01/07 07:52:02;;;;;;;15.55;6.22;;;;;;;;;;10432820;28;20028;-77
2023/01/07 07:57:05;;;;;;;12.68;5.75;;;;;;;;;;10420511;28;20036;-78
2023/01/07 08:02:07;;;;;;;10.35;5.43;;;;;;;;;;10432134;28;20032;-78
2023/01/07 08:07:08;;;;;;;6.50;4.15;;;;;;;;;;10425836;28;20060;-77
2023/01/07 08:12:08;;;;;;;11.10;6.75;;;;;;;;;;10442929;28;20037;-74
2023/01/07 08:17:09;;;;;;;8.60;4.55;;;;;;;;;;10413312;28;20048;-78
2023/01/07 08:22:09;;;;;;;16.88;7.15;;;;;;;;;;10421072;28;20596;-74
2023/01/07 08:27:09;;;;;;;14.13;7.88;;;;;;;;;;10438484;28;20041;-74
2023/01/07 08:32:09;;;;;;;22.30;11.85;;;;;;;;;;10416824;28;20136;-76
2023/01/07 08:37:10;;;;;;;16.20;9.32;;;;;;;;;;10422959;28;20087;-77
2023/01/07 08:42:10;;;;;;;21.20;12.98;;;;;;;;;;10429296;28;20478;-73
2023/01/07 08:47:10;;;;;;;34.13;12.93;;;;;;;;;;10413748;28;20562;-76
2023/01/07 08:52:11;;;;;;;28.00;12.98;;;;;;;;;;10416160;28;20546;-76
2023/01/07 08:57:11;;;;;;;22.02;11.45;;;;;;;;;;10421602;28;20033;-78
2023/01/07 09:02:12;;;;;;;20.47;8.43;;;;;;;;;;10439485;28;20029;-77
2023/01/07 09:07:13;;;;;;;16.58;9.15;;;;;;;;;;10450792;28;20025;-72
2023/01/07 09:12:13;;;;;;;27.65;13.50;;;;;;;;;;10424888;28;20037;-76
2023/01/07 09:17:13;;;;;;;28.10;14.47;;;;;;;;;;10412830;28;20509;-72
2023/01/07 09:22:13;;;;;;;35.25;16.38;;;;;;;;;;10419784;28;20025;-77
2023/01/07 09:27:15;;;;;;;31.70;14.93;;;;;;;;;;10420648;28;20494;-73
2023/01/07 09:32:15;;;;;;;27.42;14.32;;;;;;;;;;10433939;28;20060;-74
2023/01/07 09:37:16;;;;;;;32.58;14.00;;;;;;;;;;10427295;28;20060;-77
2023/01/07 09:42:26;;;;;;;33.65;16.00;;;;;;;;;;10444090;28;20037;-76
2023/01/07 09:47:28;;;;;;;31.60;14.23;;;;;;;;;;10458651;28;20118;-75
2023/01/07 09:52:32;;;;;;;27.85;13.77;;;;;;;;;;10444054;28;20029;-74
2023/01/07 09:57:34;;;;;;;31.17;14.98;;;;;;;;;;10443769;28;20041;-74
2023/01/07 10:02:57;;;;;;;27.10;12.75;;;;;;;;;;10437716;28;20123;-73
2023/01/07 10:08:09;;;;;;;23.17;10.95;;;;;;;;;;10415586;28;20041;-72
2023/01/07 10:13:09;;;;;;;26.52;11.70;;;;;;;;;;10434114;28;20155;-75
2023/01/07 10:18:42;;;;;;;24.15;11.00;;;;;;;;;;10439061;28;20031;-74
2023/01/07 10:23:44;;;;;;;22.25;10.57;;;;;;;;;;10384874;28;20076;-78
2023/01/07 10:28:50;;;;;;;24.45;10.93;;;;;;;;;;10424240;28;20023;-79
2023/01/07 10:33:52;;;;;;;21.85;9.77;;;;;;;;;;10415737;28;20028;-76
2023/01/07 10:38:55;;;;;;;22.58;9.23;;;;;;;;;;10437027;28;20020;-72
2023/01/07 10:44:14;;;;;;;19.88;9.18;;;;;;;;;;10416093;28;20032;-80
2023/01/07 10:49:14;;;;;;;21.90;8.55;;;;;;;;;;10420827;28;20514;-77
2023/01/07 10:54:17;;;;;;;20.27;8.82;;;;;;;;;;10424580;28;20028;-78
2023/01/07 10:59:19;;;;;;;26.58;10.05;;;;;;;;;;10451283;28;20013;-79
2023/01/07 11:04:19;;;;;;;19.92;10.35;;;;;;;;;;10445797;28;20032;-79
2023/01/07 11:09:28;;;;;;;20.77;11.37;;;;;;;;;;10434370;28;20371;-78
2023/01/07 11:14:31;;;;;;;26.20;11.90;;;;;;;;;;10426989;28;20866;-73
2023/01/07 11:19:51;;;;;;;23.77;11.50;;;;;;;;;;10428286;28;20025;-80
2023/01/07 11:24:51;;;;;;;20.25;10.40;;;;;;;;;;10435546;28;20088;-77
2023/01/07 11:29:58;;;;;;;24.92;10.25;;;;;;;;;;10448310;28;20047;-78
2023/01/07 11:35:00;;;;;;;13.77;8.90;;;;;;;;;;10423212;28;20044;-78
2023/01/07 11:40:02;;;;;;;23.30;8.40;;;;;;;;;;10443545;28;20083;-77
2023/01/07 11:45:12;;;;;;;12.90;6.68;;;;;;;;;;10439050;28;20024;-74
2023/01/07 11:50:23;;;;;;;9.60;5.15;;;;;;;;;;10442040;28;20398;-75
2023/01/07 11:55:24;;;;;;;14.15;5.90;;;;;;;;;;10425705;28;20020;-78
2023/01/07 12:00:24;;;;;;;14.20;6.55;;;;;;;;;;10426268;28;20023;-77
2023/01/07 12:05:26;;;;;;;15.23;7.32;;;;;;;;;;10425433;28;20020;-77
2023/01/07 12:10:28;;;;;;;13.07;7.85;;;;;;;;;;10408986;28;20181;-75
2023/01/07 12:15:50;;;;;;;17.58;8.60;;;;;;;;;;10417581;28;20072;-77
2023/01/07 12:20:51;;;;;;;17.63;8.18;;;;;;;;;;10399146;28;20456;-78
2023/01/07 12:26:00;;;;;;;26.13;11.80;;;;;;;;;;10425204;28;20021;-77
2023/01/07 12:31:16;;;;;;;22.73;11.43;;;;;;;;;;10432032;28;20335;-76
2023/01/07 12:36:26;;;;;;;20.60;11.68;;;;;;;;;;10425631;28;20116;-75
2023/01/07 12:41:31;;;;;;;23.38;11.27;;;;;;;;;;10412395;28;20044;-78
2023/01/07 12:46:35;;;;;;;33.38;12.00;;;;;;;;;;10404513;28;20029;-78
2023/01/07 12:51:41;;;;;;;23.25;12.52;;;;;;;;;;10400556;28;20471;-80
2023/01/07 12:56:52;;;;;;;19.83;10.20;;;;;;;;;;10399532;28;20076;-79
2023/01/07 13:02:07;;;;;;;22.20;9.73;;;;;;;;;;10399073;28;20558;-79
2023/01/07 13:07:11;;;;;;;17.77;10.10;;;;;;;;;;10399361;28;20029;-75
2023/01/07 13:12:43;;;;;;;18.77;9.80;;;;;;;;;;10394162;28;20021;-81
2023/01/07 13:17:43;;;;;;;20.98;10.02;;;;;;;;;;10389523;28;20354;-79
2023/01/07 13:22:54;;;;;;;21.50;11.02;;;;;;;;;;10399227;28;20021;-79
2023/01/07 13:28:13;;;;;;;27.40;11.90;;;;;;;;;;10397723;28;20028;-78
2023/01/07 13:33:20;;;;;;;20.92;9.50;;;;;;;;;;10397409;28;20083;-78
2023/01/07 13:38:23;;;;;;;24.55;9.07;;;;;;;;;;10399209;28;20510;-77
2023/01/07 13:43:35;;;;;;;15.82;8.75;;;;;;;;;;10397368;28;20025;-78
2023/01/07 13:48:37;;;;;;;19.33;8.23;;;;;;;;;;10397938;28;20020;-80
2023/01/07 13:53:44;;;;;;;19.88;9.90;;;;;;;;;;10397988;28;20025;-80
2023/01/07 13:58:55;;;;;;;19.75;9.40;;;;;;;;;;10398188;28;20022;-79
2023/01/07 14:04:07;;;;;;;20.10;9.52;;;;;;;;;;10398090;28;20674;-80
2023/01/07 14:09:09;;;;;;;20.15;8.70;;;;;;;;;;10396545;28;20013;-78
2023/01/07 14:14:29;;;;;;;26.10;9.65;;;;;;;;;;10412288;28;20053;-80
2023/01/07 14:19:42;;;;;;;20.52;8.82;;;;;;;;;;10415690;28;20488;-80
2023/01/07 14:25:01;;;;;;;18.27;8.85;;;;;;;;;;10421240;28;20036;-80
2023/01/07 14:30:14;;;;;;;27.25;11.57;;;;;;;;;;10409194;28;20491;-83
2023/01/07 14:35:14;;;;;;;33.10;14.10;;;;;;;;;;10447242;28;20025;-80
2023/01/07 14:40:36;;;;;;;27.38;14.13;;;;;;;;;;10446325;28;20025;-83
2023/01/07 14:45:37;;;;;;;40.47;16.70;;;;;;;;;;10428218;28;20025;-75
2023/01/07 14:50:57;;;;;;;40.47;18.85;;;;;;;;;;10445582;28;20467;-80
2023/01/07 14:56:06;;;;;;;38.55;17.90;;;;;;;;;;10428266;28;20438;-80
2023/01/07 15:01:25;;;;;;;38.95;18.30;;;;;;;;;;10444614;28;20021;-75
2023/01/07 15:06:26;;;;;;;51.70;20.23;;;;;;;;;;10433770;28;20025;-76
2023/01/07 15:16:47;;;;;;;49.80;20.70;;;;;;;;;;10466964;28;20041;-74
2023/01/07 15:22:13;;;;;;;46.10;19.83;;;;;;;;;;10436583;28;20013;-77
2023/01/07 15:27:25;;;;;;;44.13;20.83;;;;;;;;;;10424498;28;20382;-73
2023/01/07 15:32:25;;;;;;;44.08;19.58;;;;;;;;;;10426487;28;20483;-78
2023/01/07 15:37:25;;;;;;;42.20;21.52;;;;;;;;;;10443078;28;20025;-80
2023/01/07 15:42:26;;;;;;;45.30;20.53;;;;;;;;;;10426019;28;20041;-75
2023/01/07 15:47:40;;;;;;;46.08;20.38;;;;;;;;;;10409867;28;20275;-74
2023/01/07 15:52:47;;;;;;;50.55;22.17;;;;;;;;;;10426235;28;20485;-76
2023/01/07 15:57:50;;;;;;;40.15;20.63;;;;;;;;;;10426998;28;20031;-75
2023/01/07 16:02:50;;;;;;;44.83;18.63;;;;;;;;;;10425759;28;20380;-78
2023/01/07 16:07:53;;;;;;;49.80;21.65;;;;;;;;;;10425509;28;20028;-75
2023/01/07 16:12:55;;;;;;;44.70;20.08;;;;;;;;;;10424847;28;20045;-73
2023/01/07 16:18:01;;;;;;;58.95;23.25;;;;;;;;;;10423991;28;20211;-76
2023/01/07 16:23:08;;;;;;;54.88;25.25;;;;;;;;;;10408049;28;20036;-80
2023/01/07 16:28:27;;;;;;;67.97;24.15;;;;;;;;;;10442090;28;20371;-80
2023/01/07 16:33:29;;;;;;;48.20;23.58;;;;;;;;;;10410300;28;20032;-79
2023/01/07 16:38:30;;;;;;;63.58;26.27;;;;;;;;;;10442471;28;20040;-78
2023/01/07 16:43:31;;;;;;;42.50;19.33;;;;;;;;;;10442290;28;20021;-75
2023/01/07 16:48:31;;;;;;;52.47;22.43;;;;;;;;;;10441542;28;20028;-78
2023/01/07 16:53:32;;;;;;;47.75;22.33;;;;;;;;;;10423824;28;20111;-78
2023/01/07 16:58:40;;;;;;;54.92;23.85;;;;;;;;;;10438510;28;20112;-79
2023/01/07 17:03:44;;;;;;;45.40;20.52;;;;;;;;;;10415217;28;20052;-80
2023/01/07 17:08:46;;;;;;;50.53;20.80;;;;;;;;;;10423586;28;20032;-78
2023/01/07 17:13:47;;;;;;;49.00;19.55;;;;;;;;;;10422636;28;20048;-79
2023/01/07 17:18:47;;;;;;;46.05;20.08;;;;;;;;;;10428581;28;20037;-75
2023/01/07 17:23:47;;;;;;;50.65;20.38;;;;;;;;;;10457171;28;20124;-75
2023/01/07 17:28:50;;;;;;;43.22;16.17;;;;;;;;;;10476065;28;20027;-74
2023/01/07 17:33:52;;;;;;;25.52;13.38;;;;;;;;;;10446739;28;20025;-75
2023/01/07 17:38:52;;;;;;;28.08;12.93;;;;;;;;;;10424475;28;20028;-80
2023/01/07 17:43:53;;;;;;;25.17;12.43;;;;;;;;;;10439859;28;20067;-81
2023/01/07 17:48:53;;;;;;;30.85;11.35;;;;;;;;;;10422271;28;20021;-77
2023/01/07 17:53:57;;;;;;;21.98;11.68;;;;;;;;;;10438333;28;20029;-80
2023/01/07 17:58:57;;;;;;;25.63;11.40;;;;;;;;;;10421917;28;20092;-82
2023/01/07 18:03:58;;;;;;;19.60;10.23;;;;;;;;;;10426116;28;20013;-74
2023/01/07 18:08:58;;;;;;;24.27;10.68;;;;;;;;;;10430706;28;20021;-79
2023/01/07 18:13:59;;;;;;;20.90;9.63;;;;;;;;;;10447099;28;20053;-78
2023/01/07 18:18:59;;;;;;;23.23;11.48;;;;;;;;;;10444225;28;20036;-78
2023/01/07 18:24:00;;;;;;;18.60;8.77;;;;;;;;;;10445025;28;20124;-75
2023/01/07 18:29:00;;;;;;;24.10;10.07;;;;;;;;;;10424495;28;20114;-78
2023/01/07 18:34:00;;;;;;;14.13;7.72;;;;;;;;;;10425103;28;20025;-76
2023/01/07 18:39:00;;;;;;;17.27;9.63;;;;;;;;;;10423458;28;20040;-80
2023/01/07 18:44:01;;;;;;;21.30;8.52;;;;;;;;;;10427795;28;20021;-74
2023/01/07 18:49:01;;;;;;;21.38;9.45;;;;;;;;;;10445417;28;20032;-75
2023/01/07 18:54:01;;;;;;;22.63;10.87;;;;;;;;;;10430168;23;20058;-76
2023/01/07 18:59:02;;;;;;;18.00;9.93;;;;;;;;;;10402908;28;20033;-76
2023/01/07 19:04:03;;;;;;;23.05;10.93;;;;;;;;;;10390079;28;20279;-78
2023/01/07 19:09:05;;;;;;;38.03;16.15;;;;;;;;;;10395986;28;20021;-82
2023/01/07 19:14:07;;;;;;;43.00;15.93;;;;;;;;;;10404326;28;20037;-78
2023/01/07 19:19:08;;;;;;;36.38;17.42;;;;;;;;;;10407239;28;20063;-78
2023/01/07 19:24:08;;;;;;;37.92;15.85;;;;;;;;;;10405141;28;20120;-77
2023/01/07 19:29:08;;;;;;;39.07;18.40;;;;;;;;;;10428925;28;20098;-80
2023/01/07 19:34:09;;;;;;;37.63;16.65;;;;;;;;;;10427678;28;20053;-77
2023/01/07 19:39:13;;;;;;;36.40;16.93;;;;;;;;;;10420558;28;20034;-74
2023/01/07 19:44:14;;;;;;;31.15;13.35;;;;;;;;;;10389420;28;20068;-78
2023/01/07 19:49:15;;;;;;;25.02;11.70;;;;;;;;;;10402568;28;20116;-80
2023/01/07 19:54:16;;;;;;;26.73;13.68;;;;;;;;;;10407271;28;20061;-75
2023/01/07 19:59:16;;;;;;;24.67;10.95;;;;;;;;;;10399018;28;20034;-76
2023/01/07 20:04:17;;;;;;;21.60;10.93;;;;;;;;;;10397629;28;20091;-78
2023/01/07 20:09:17;;;;;;;22.90;11.63;;;;;;;;;;10403627;28;20021;-80
2023/01/07 20:14:17;;;;;;;22.15;9.40;;;;;;;;;;10398805;28;20033;-79
2023/01/07 20:19:18;;;;;;;16.00;7.00;;;;;;;;;;10399564;28;20112;-79
2023/01/07 20:24:19;;;;;;;23.00;9.03;;;;;;;;;;10399776;28;20021;-78
2023/01/07 20:29:19;;;;;;;16.05;7.03;;;;;;;;;;10397269;28;20036;-79
2023/01/07 20:34:21;;;;;;;13.63;6.75;;;;;;;;;;10398640;28;20037;-81
2023/01/07 20:39:21;;;;;;;16.35;7.25;;;;;;;;;;10402187;28;20049;-75
2023/01/07 20:44:21;;;;;;;13.23;7.00;;;;;;;;;;10397227;28;20135;-78
2023/01/07 20:49:22;;;;;;;19.00;7.87;;;;;;;;;;10400466;28;20025;-81
2023/01/07 20:54:23;;;;;;;11.90;6.70;;;;;;;;;;10389115;28;20342;-77
2023/01/07 20:59:23;;;;;;;10.77;6.50;;;;;;;;;;10399277;28;20033;-80
2023/01/07 21:04:27;;;;;;;11.30;5.75;;;;;;;;;;10398584;28;20026;-77
2023/01/07 21:09:28;;;;;;;16.05;7.07;;;;;;;;;;10400321;28;20472;-80
2023/01/07 21:14:28;;;;;;;20.52;10.38;;;;;;;;;;10397519;28;20045;-74
2023/01/07 21:19:28;;;;;;;54.63;27.27;;;;;;;;;;10397122;28;20108;-82
2023/01/07 21:24:28;;;;;;;29.25;15.23;;;;;;;;;;10394805;28;20037;-77
2023/01/07 21:29:29;;;;;;;35.28;12.80;;;;;;;;;;10397858;28;20025;-76
2023/01/07 21:34:29;;;;;;;22.10;11.00;;;;;;;;;;10422155;28;20038;-77
2023/01/07 21:39:29;;;;;;;36.13;14.75;;;;;;;;;;10415572;28;20112;-79
2023/01/07 21:44:30;;;;;;;41.95;16.58;;;;;;;;;;10398606;28;20561;-80
2023/01/07 21:49:30;;;;;;;28.67;14.50;;;;;;;;;;10378302;28;20453;-80
2023/01/07 21:54:33;;;;;;;32.80;13.43;;;;;;;;;;10395379;28;20045;-80
2023/01/07 21:59:33;;;;;;;41.08;16.00;;;;;;;;;;10396362;28;20042;-80
2023/01/07 22:04:33;;;;;;;29.85;12.15;;;;;;;;;;10389010;28;20503;-82
2023/01/07 22:09:34;;;;;;;28.42;12.85;;;;;;;;;;10399734;28;20033;-78
2023/01/07 22:14:34;;;;;;;28.92;12.40;;;;;;;;;;10396961;28;20411;-80
2023/01/07 22:19:34;;;;;;;18.07;9.80;;;;;;;;;;10395822;28;20130;-79
2023/01/07 22:24:34;;;;;;;19.10;9.27;;;;;;;;;;10395538;28;20406;-78
2023/01/07 22:29:36;;;;;;;15.63;7.97;;;;;;;;;;10396623;28;20025;-79
2023/01/07 22:34:36;;;;;;;18.02;9.10;;;;;;;;;;10395356;28;20051;-78
2023/01/07 22:39:38;;;;;;;18.30;7.80;;;;;;;;;;10396152;28;20037;-79
2023/01/07 22:44:42;;;;;;;15.02;7.43;;;;;;;;;;10396544;28;20029;-76
2023/01/07 22:49:42;;;;;;;18.67;7.68;;;;;;;;;;10396816;28;20025;-80
2023/01/07 22:54:42;;;;;;;13.88;6.18;;;;;;;;;;10403008;28;20054;-80
2023/01/07 22:59:43;;;;;;;14.35;6.47;;;;;;;;;;10401015;28;20045;-78
2023/01/07 23:04:43;;;;;;;12.70;6.90;;;;;;;;;;10402265;28;20029;-78
2023/01/07 23:09:43;;;;;;;15.38;8.50;;;;;;;;;;10403810;28;20026;-81
2023/01/07 23:14:44;;;;;;;18.02;7.97;;;;;;;;;;10404169;28;20037;-80
2023/01/07 23:19:44;;;;;;;14.77;8.23;;;;;;;;;;10401990;28;20555;-79
2023/01/07 23:24:44;;;;;;;15.70;7.10;;;;;;;;;;10402040;28;20502;-77
2023/01/07 23:29:44;;;;;;;21.45;8.27;;;;;;;;;;10427755;28;20272;-76
2023/01/07 23:34:45;;;;;;;12.85;7.75;;;;;;;;;;10420738;28;20029;-78
2023/01/07 23:39:45;;;;;;;15.75;8.48;;;;;;;;;;10413821;28;20025;-77
2023/01/07 23:44:46;;;;;;;18.65;8.05;;;;;;;;;;10409731;28;20053;-78
2023/01/07 23:49:46;;;;;;;13.40;7.28;;;;;;;;;;10400652;28;20484;-79
2023/01/07 23:54:49;;;;;;;15.25;7.75;;;;;;;;;;10397811;28;20482;-81
2023/01/07 23:59:50;;;;;;;18.00;8.50;;;;;;;;;;10403495;28;20029;-80
